Time;durP1;ratioP1;P1;durP2;ratioP2;P2;SDS_P1;SDS_P2;PMS_P1;PMS_P2;Temp;Humidity;BMP_temperature;BMP_pressure;BME280_temperature;BME280_humidity;BME280_pressure;Samples;Min_cycle;Max_cycle;Signal;HPM_P1;HPM_P2
2021/12/04 00:01:54;;;;;;;28.42;17.17;;;5.20;99.90;;;;;;4962968;28;20485;-71
2021/12/04 00:04:45;;;;;;;32.55;19.48;;;5.10;99.90;;;;;;4966639;28;20042;-71
2021/12/04 00:07:07;;;;;;;29.83;17.45;;;5.40;99.90;;;;;;4965371;28;20111;-71
2021/12/04 00:09:34;;;;;;;35.08;18.55;;;6.00;99.90;;;;;;4955655;28;20053;-71
2021/12/04 00:14:25;;;;;;;31.80;18.05;;;5.40;99.90;;;;;;4984117;28;20116;-71
2021/12/04 00:16:52;;;;;;;35.60;18.42;;;5.40;99.90;;;;;;4961618;28;20046;-71
2021/12/04 00:19:18;;;;;;;30.35;16.63;;;5.10;99.90;;;;;;4959458;28;20043;-71
2021/12/04 00:21:45;;;;;;;35.50;18.27;;;5.10;99.90;;;;;;4962129;28;20050;-71
2021/12/04 00:24:11;;;;;;;39.92;19.33;;;4.80;99.90;;;;;;4965224;28;20043;-71
2021/12/04 00:26:38;;;;;;;40.83;21.77;;;4.90;99.90;;;;;;4945056;28;20046;-71
2021/12/04 00:29:04;;;;;;;43.13;21.92;;;4.90;99.90;;;;;;4947823;28;20042;-71
2021/12/04 00:31:30;;;;;;;46.92;22.10;;;5.10;99.90;;;;;;4961931;28;20092;-71
2021/12/04 00:33:57;;;;;;;44.22;21.20;;;4.90;99.90;;;;;;4955771;28;20030;-71
2021/12/04 00:49:55;;;;;;;42.88;20.75;;;5.80;99.90;;;;;;4988083;28;20046;-72
2021/12/04 00:52:20;;;;;;;41.25;19.92;;;5.80;99.90;;;;;;4985125;28;20053;-73
2021/12/04 00:54:46;;;;;;;39.83;19.67;;;5.70;99.90;;;;;;4982062;28;20072;-73
2021/12/04 00:57:13;;;;;;;35.72;19.00;;;5.80;99.90;;;;;;4972956;28;20457;-72
2021/12/04 00:59:39;;;;;;;43.45;19.98;;;6.10;99.90;;;;;;4987623;28;20038;-73
2021/12/04 01:02:05;;;;;;;40.35;19.98;;;6.00;99.90;;;;;;4998998;28;20153;-73
2021/12/04 01:04:31;;;;;;;40.92;19.50;;;5.10;99.90;;;;;;4984085;28;20748;-70
2021/12/04 01:06:57;;;;;;;39.95;20.50;;;5.70;99.90;;;;;;4984218;28;20617;-70
2021/12/04 01:09:25;;;;;;;35.67;19.20;;;5.60;99.90;;;;;;4980378;28;20050;-70
2021/12/04 01:11:53;;;;;;;40.70;20.42;;;5.90;99.90;;;;;;4962312;28;20064;-70
2021/12/04 01:14:23;;;;;;;45.35;20.25;;;4.90;99.90;;;;;;4979655;28;20074;-70
2021/12/04 01:16:50;;;;;;;43.22;19.45;;;5.90;99.90;;;;;;4983414;28;20410;-70
2021/12/04 01:19:18;;;;;;;50.22;22.58;;;5.90;99.90;;;;;;4973708;28;20035;-70
2021/12/04 01:21:44;;;;;;;41.25;19.60;;;5.50;99.90;;;;;;4963112;28;20065;-70
2021/12/04 01:24:10;;;;;;;37.30;19.02;;;5.10;99.90;;;;;;4994285;28;20065;-70
2021/12/04 01:26:36;;;;;;;41.28;19.20;;;5.90;99.90;;;;;;4963605;28;20054;-69
2021/12/04 01:29:03;;;;;;;41.92;19.77;;;5.80;99.90;;;;;;4965689;28;20054;-70
2021/12/04 01:31:29;;;;;;;41.20;19.58;;;5.00;99.90;;;;;;4988199;28;20049;-70
2021/12/04 01:33:55;;;;;;;39.13;18.88;;;6.00;99.90;;;;;;4973121;28;20030;-70
2021/12/04 01:36:20;;;;;;;36.53;19.48;;;5.80;99.90;;;;;;4962421;28;20176;-70
2021/12/04 01:38:46;;;;;;;46.58;20.58;;;6.30;99.90;;;;;;4994374;28;20045;-70
2021/12/04 01:41:12;;;;;;;49.63;21.52;;;4.80;99.90;;;;;;4964737;28;20089;-71
2021/12/04 01:43:39;;;;;;;38.25;18.13;;;5.30;99.90;;;;;;4992974;28;20051;-70
2021/12/04 01:46:05;;;;;;;43.35;19.63;;;4.90;99.90;;;;;;4968252;28;20049;-70
2021/12/04 01:48:30;;;;;;;49.30;21.95;;;4.90;99.90;;;;;;4994837;28;20054;-70
2021/12/04 01:50:56;;;;;;;46.45;19.65;;;6.10;99.90;;;;;;4962858;28;20043;-70
2021/12/04 01:53:24;;;;;;;46.30;18.38;;;4.80;99.90;;;;;;4990137;28;20046;-70
2021/12/04 01:55:55;;;;;;;42.13;17.92;;;4.80;99.90;;;;;;4978758;28;20045;-70
2021/12/04 01:58:21;;;;;;;45.38;19.70;;;5.60;99.90;;;;;;4960809;28;20053;-70
2021/12/04 02:00:47;;;;;;;44.45;20.05;;;4.80;99.90;;;;;;4966749;28;20066;-70
2021/12/04 02:03:14;;;;;;;42.67;18.65;;;4.90;99.90;;;;;;4985886;28;20039;-71
2021/12/04 02:05:41;;;;;;;44.03;18.73;;;5.90;99.90;;;;;;4970116;28;20050;-71
2021/12/04 02:08:12;;;;;;;32.83;15.93;;;4.80;99.90;;;;;;4984369;28;20255;-71
2021/12/04 02:10:38;;;;;;;47.72;20.55;;;5.90;99.90;;;;;;4986733;28;20529;-71
2021/12/04 02:13:04;;;;;;;45.80;18.33;;;5.80;99.90;;;;;;4971707;28;20034;-71
2021/12/04 02:15:31;;;;;;;49.97;20.33;;;4.70;99.90;;;;;;4972942;28;20080;-71
2021/12/04 02:17:57;;;;;;;57.67;20.80;;;5.90;99.90;;;;;;4947243;28;20046;-72
2021/12/04 02:20:27;;;;;;;44.08;18.67;;;5.80;99.90;;;;;;4979861;28;20398;-72
2021/12/04 02:22:53;;;;;;;45.75;19.08;;;6.10;99.90;;;;;;5011042;28;20050;-71
2021/12/04 02:25:19;;;;;;;53.50;20.65;;;5.10;99.90;;;;;;4988767;28;20046;-72
2021/12/04 02:27:45;;;;;;;42.78;18.60;;;5.00;99.90;;;;;;4982307;28;20627;-72
2021/12/04 02:30:15;;;;;;;41.03;17.70;;;5.90;99.90;;;;;;4969205;28;20129;-72
2021/12/04 02:32:41;;;;;;;45.88;19.38;;;5.20;99.90;;;;;;4972754;28;20043;-72
2021/12/04 02:35:09;;;;;;;47.97;17.48;;;4.80;99.90;;;;;;4990031;28;20826;-72
2021/12/04 02:37:36;;;;;;;43.45;17.27;;;5.60;99.90;;;;;;4955693;28;20061;-72
2021/12/04 02:40:04;;;;;;;45.33;17.70;;;5.00;99.90;;;;;;4970273;28;20137;-72
2021/12/04 02:42:31;;;;;;;41.35;16.85;;;4.90;99.90;;;;;;4966288;28;20128;-72
2021/12/04 02:44:59;;;;;;;48.63;19.55;;;6.00;99.90;;;;;;4982292;28;20472;-72
2021/12/04 02:47:26;;;;;;;41.78;17.95;;;4.80;99.90;;;;;;4988181;28;20044;-72
2021/12/04 02:49:53;;;;;;;42.50;17.48;;;5.90;99.90;;;;;;4981845;28;20054;-72
2021/12/04 02:52:19;;;;;;;44.83;18.98;;;5.70;99.90;;;;;;5003315;28;20042;-72
2021/12/04 02:54:45;;;;;;;46.47;17.05;;;5.70;99.90;;;;;;4971963;28;20486;-72
2021/12/04 02:57:13;;;;;;;46.30;18.80;;;5.20;99.90;;;;;;4967643;28;20038;-72
2021/12/04 02:59:41;;;;;;;41.10;17.10;;;4.90;99.90;;;;;;4972115;28;20168;-72
2021/12/04 03:02:15;;;;;;;53.28;19.48;;;5.30;99.90;;;;;;4984746;28;20052;-72
2021/12/04 03:04:41;;;;;;;54.22;19.40;;;6.00;99.90;;;;;;4974631;28;20046;-72
2021/12/04 03:07:07;;;;;;;37.47;16.42;;;6.10;99.90;;;;;;4969135;28;20695;-72
2021/12/04 03:09:34;;;;;;;41.63;17.00;;;6.10;99.90;;;;;;4975672;28;20047;-71
2021/12/04 03:12:05;;;;;;;52.10;19.00;;;5.60;99.90;;;;;;4971544;28;20046;-73
2021/12/04 03:14:31;;;;;;;44.60;17.38;;;6.10;99.90;;;;;;4969400;28;20042;-72
2021/12/04 03:16:58;;;;;;;47.03;17.58;;;5.00;99.90;;;;;;4970305;28;20034;-72
2021/12/04 03:19:24;;;;;;;56.88;18.95;;;5.90;99.90;;;;;;5000414;28;20136;-72
2021/12/04 03:21:50;;;;;;;39.85;17.60;;;6.00;99.90;;;;;;4966740;28;20095;-72
2021/12/04 03:24:17;;;;;;;49.97;19.02;;;5.30;99.90;;;;;;4966463;28;20398;-72
2021/12/04 03:26:46;;;;;;;40.17;16.77;;;5.90;99.90;;;;;;4986566;28;20162;-72
2021/12/04 03:29:16;;;;;;;57.00;19.10;;;4.80;99.90;;;;;;4971017;28;20030;-72
2021/12/04 03:42:24;;;;;;;51.15;19.30;;;4.90;99.90;;;;;;4966223;28;20145;-72
2021/12/04 03:44:50;;;;;;;45.95;17.75;;;5.90;99.90;;;;;;4965488;28;20134;-72
2021/12/04 03:47:16;;;;;;;39.55;16.15;;;5.90;99.90;;;;;;4973270;28;20049;-72
2021/12/04 03:49:42;;;;;;;39.55;16.00;;;5.90;99.90;;;;;;5005010;28;20052;-72
2021/12/04 03:52:08;;;;;;;36.03;15.40;;;5.50;99.90;;;;;;4977712;28;20410;-72
2021/12/04 03:54:35;;;;;;;43.40;17.00;;;5.90;99.90;;;;;;4968200;28;20133;-72
2021/12/04 03:57:04;;;;;;;34.42;15.27;;;6.00;99.90;;;;;;4964144;28;20051;-72
2021/12/04 03:59:36;;;;;;;38.17;16.08;;;5.00;99.90;;;;;;4969094;28;20038;-72
2021/12/04 04:02:03;;;;;;;31.20;14.23;;;6.10;99.90;;;;;;4957733;28;20373;-72
2021/12/04 04:04:29;;;;;;;30.88;14.07;;;5.90;99.90;;;;;;4989902;28;20074;-72
2021/12/04 04:06:55;;;;;;;32.47;14.15;;;4.80;99.90;;;;;;4977770;28;20084;-72
2021/12/04 04:09:21;;;;;;;36.63;14.63;;;4.80;99.90;;;;;;4971986;28;20471;-72
2021/12/04 04:11:47;;;;;;;36.22;14.07;;;4.80;99.90;;;;;;4969339;28;20042;-72
2021/12/04 04:14:13;;;;;;;29.33;13.20;;;5.90;99.90;;;;;;4986449;28;20039;-71
2021/12/04 04:16:40;;;;;;;29.20;12.57;;;4.80;99.90;;;;;;4968997;28;20046;-71
2021/12/04 04:19:06;;;;;;;36.28;14.10;;;5.80;99.90;;;;;;4987656;28;20050;-71
2021/12/04 04:21:39;;;;;;;34.83;14.68;;;4.70;99.90;;;;;;4977699;28;20133;-72
2021/12/04 04:24:06;;;;;;;33.47;14.35;;;6.00;99.90;;;;;;4969089;28;20113;-71
2021/12/04 04:26:32;;;;;;;28.90;13.57;;;5.00;99.90;;;;;;4960225;28;20074;-71
2021/12/04 04:28:58;;;;;;;33.75;14.15;;;5.60;99.90;;;;;;5000752;28;20050;-71
2021/12/04 04:31:23;;;;;;;37.80;14.18;;;5.30;99.90;;;;;;4966399;28;20047;-72
2021/12/04 04:33:49;;;;;;;30.10;14.05;;;5.30;99.90;;;;;;5024441;28;20050;-72
2021/12/04 05:11:33;;;;;;;34.53;14.07;;;4.70;99.90;;;;;;4976729;28;19925;-72
2021/12/04 05:13:59;;;;;;;32.22;13.48;;;5.60;99.90;;;;;;4966659;28;20379;-72
2021/12/04 05:16:30;;;;;;;30.27;13.95;;;6.10;99.90;;;;;;4969045;28;20045;-72
2021/12/04 05:18:59;;;;;;;35.50;14.25;;;4.80;99.90;;;;;;4945142;28;20042;-72
2021/12/04 05:21:25;;;;;;;37.63;14.00;;;4.90;99.90;;;;;;4958737;28;20046;-72
2021/12/04 05:23:54;;;;;;;30.17;12.90;;;4.80;99.90;;;;;;4956480;28;20440;-71
2021/12/04 05:26:26;;;;;;;22.90;11.35;;;4.80;99.90;;;;;;5047437;28;20047;-71
2021/12/04 05:28:53;;;;;;;32.80;14.90;;;6.00;99.90;;;;;;4988624;28;20050;-71
2021/12/04 05:31:20;;;;;;;27.35;12.73;;;4.80;99.90;;;;;;4969931;28;20046;-71
2021/12/04 05:33:46;;;;;;;30.02;12.73;;;5.60;99.90;;;;;;4976557;28;20050;-71
2021/12/04 05:36:12;;;;;;;28.20;12.20;;;4.70;99.90;;;;;;4976387;28;20115;-71
2021/12/04 05:38:38;;;;;;;30.33;13.48;;;4.70;99.90;;;;;;4973610;28;20483;-71
2021/12/04 05:41:04;;;;;;;29.30;12.50;;;5.20;99.90;;;;;;4969675;28;20046;-70
2021/12/04 05:43:30;;;;;;;33.05;13.55;;;4.80;99.90;;;;;;4974216;28;20490;-70
2021/12/04 05:46:21;;;;;;;22.98;9.75;;;6.10;99.90;;;;;;4980491;28;20083;-70
2021/12/04 05:48:50;;;;;;;26.65;12.40;;;4.70;99.90;;;;;;5060073;28;20572;-70
2021/12/04 05:57:10;;;;;;;26.27;11.57;;;5.90;99.90;;;;;;4992383;28;20060;-70
2021/12/04 05:59:36;;;;;;;27.20;12.30;;;5.90;99.90;;;;;;4983035;28;20120;-70
2021/12/04 06:02:02;;;;;;;28.70;11.60;;;5.20;99.90;;;;;;4991902;28;20542;-70
2021/12/04 06:04:28;;;;;;;25.98;12.63;;;4.80;99.90;;;;;;4993831;28;20042;-70
2021/12/04 06:06:53;;;;;;;33.03;12.90;;;5.40;99.90;;;;;;4970492;28;21487;-70
2021/12/04 06:09:19;;;;;;;24.33;11.70;;;4.70;99.90;;;;;;5039392;28;20042;-70
2021/12/04 06:11:45;;;;;;;31.17;12.63;;;5.60;99.90;;;;;;5027042;28;20039;-70
2021/12/04 06:14:11;;;;;;;29.45;12.57;;;4.60;99.90;;;;;;5039969;28;20030;-70
2021/12/04 06:16:37;;;;;;;31.50;13.20;;;4.80;99.90;;;;;;5044708;28;20051;-71
2021/12/04 06:19:24;;;;;;;31.92;13.23;;;5.30;99.90;;;;;;4974983;28;20042;-70
2021/12/04 06:24:34;;;;;;;28.00;13.15;;;5.80;99.90;;;;;;5008777;28;20061;-70
2021/12/04 06:27:00;;;;;;;37.65;14.85;;;4.70;99.90;;;;;;4997982;28;20494;-70
2021/12/04 06:29:25;;;;;;;30.75;14.35;;;6.00;99.90;;;;;;4987406;28;20046;-71
2021/12/04 06:31:51;;;;;;;21.10;9.73;;;5.00;99.90;;;;;;5039352;28;20044;-70
2021/12/04 06:34:17;;;;;;;32.85;12.88;;;4.60;99.90;;;;;;5058306;28;20494;-70
2021/12/04 06:36:43;;;;;;;28.13;12.50;;;5.70;99.90;;;;;;5006070;28;20091;-70
2021/12/04 06:39:09;;;;;;;31.40;13.35;;;5.60;99.90;;;;;;4977040;28;20035;-70
2021/12/04 06:41:35;;;;;;;29.05;12.32;;;4.60;99.90;;;;;;4974749;28;20086;-70
2021/12/04 06:44:01;;;;;;;29.92;12.45;;;4.80;99.90;;;;;;4974303;28;20086;-70
2021/12/04 06:46:28;;;;;;;25.55;12.10;;;4.60;99.90;;;;;;4996948;28;20054;-70
2021/12/04 06:49:04;;;;;;;23.45;11.75;;;5.40;99.90;;;;;;4978741;28;20544;-70
2021/12/04 06:54:02;;;;;;;28.60;12.98;;;6.00;99.90;;;;;;5002854;28;20109;-70
2021/12/04 06:56:34;;;;;;;25.20;10.95;;;5.90;99.90;;;;;;4973816;28;20075;-71
2021/12/04 06:59:05;;;;;;;23.17;10.20;;;4.80;99.90;;;;;;4969487;28;20058;-71
2021/12/04 07:01:31;;;;;;;22.05;7.82;;;5.20;99.90;;;;;;4995186;28;20047;-70
2021/12/04 07:03:57;;;;;;;19.00;8.57;;;5.70;99.90;;;;;;4975922;28;20057;-70
2021/12/04 07:06:23;;;;;;;24.58;11.15;;;5.80;99.90;;;;;;4987574;28;20054;-70
2021/12/04 07:08:48;;;;;;;19.17;9.25;;;4.90;99.90;;;;;;4978583;28;20046;-71
2021/12/04 07:11:14;;;;;;;27.33;10.27;;;4.80;99.90;;;;;;4979485;28;20073;-70
2021/12/04 07:13:40;;;;;;;16.35;8.77;;;4.70;99.90;;;;;;4965838;28;20046;-70
2021/12/04 07:16:08;;;;;;;22.85;10.63;;;4.60;99.90;;;;;;4959450;28;20057;-70
2021/12/04 07:18:35;;;;;;;31.20;11.95;;;4.80;99.90;;;;;;4989005;28;20163;-70
2021/12/04 07:21:02;;;;;;;23.30;10.45;;;5.50;99.90;;;;;;4990625;28;20125;-71
2021/12/04 07:23:27;;;;;;;21.63;10.20;;;5.90;99.90;;;;;;4985455;28;20176;-70
2021/12/04 07:25:53;;;;;;;21.50;10.00;;;5.80;99.90;;;;;;4987281;28;20459;-71
2021/12/04 07:28:19;;;;;;;37.40;13.40;;;4.70;99.90;;;;;;4964136;28;20510;-70
2021/12/04 07:30:45;;;;;;;34.00;12.70;;;5.70;99.90;;;;;;4962219;28;20065;-71
2021/12/04 07:33:10;;;;;;;34.28;11.73;;;4.80;99.90;;;;;;4985671;28;20059;-71
2021/12/04 07:35:36;;;;;;;30.13;12.38;;;5.40;99.90;;;;;;4987799;28;20034;-71
2021/12/04 07:38:02;;;;;;;30.58;12.35;;;6.00;99.90;;;;;;4987786;28;20487;-72
2021/12/04 07:40:28;;;;;;;38.50;12.82;;;5.10;99.90;;;;;;4958598;28;20122;-72
2021/12/04 07:42:53;;;;;;;24.50;11.52;;;5.60;99.90;;;;;;4976321;28;20042;-71
2021/12/04 07:45:19;;;;;;;27.30;11.23;;;5.80;99.90;;;;;;5023514;28;20111;-71
2021/12/04 07:47:46;;;;;;;28.27;12.07;;;4.70;99.90;;;;;;5054700;28;20038;-71
2021/12/04 07:50:13;;;;;;;28.77;12.32;;;5.00;99.90;;;;;;4996326;28;20065;-70
2021/12/04 07:52:39;;;;;;;30.98;12.20;;;5.50;99.90;;;;;;4996671;28;20049;-71
2021/12/04 07:55:08;;;;;;;40.10;13.70;;;5.00;99.90;;;;;;4988731;28;20034;-71
2021/12/04 07:57:34;;;;;;;24.38;9.90;;;6.00;99.90;;;;;;4990114;28;20550;-72
2021/12/04 08:00:01;;;;;;;26.27;11.43;;;5.90;99.90;;;;;;4978728;28;20038;-73
2021/12/04 08:02:26;;;;;;;29.35;11.88;;;5.10;99.90;;;;;;4998324;28;20126;-72
2021/12/04 08:04:52;;;;;;;24.70;10.80;;;5.50;99.90;;;;;;5024644;28;20137;-69
2021/12/04 08:07:18;;;;;;;26.50;10.95;;;5.80;99.90;;;;;;4983713;28;20371;-71
2021/12/04 08:09:44;;;;;;;32.00;12.15;;;5.10;99.90;;;;;;4998471;28;20037;-71
2021/12/04 08:12:10;;;;;;;28.75;12.15;;;4.80;99.90;;;;;;4992544;28;20049;-71
2021/12/04 08:14:38;;;;;;;22.90;10.43;;;5.80;99.90;;;;;;4996169;28;20465;-71
2021/12/04 08:17:05;;;;;;;37.10;14.15;;;5.20;99.90;;;;;;4985644;28;20370;-72
2021/12/04 08:19:30;;;;;;;27.13;11.65;;;4.80;99.90;;;;;;5010754;28;20382;-71
2021/12/04 08:21:56;;;;;;;38.85;13.57;;;5.00;99.90;;;;;;4984901;28;20116;-71
2021/12/04 08:24:22;;;;;;;24.50;9.80;;;4.70;99.90;;;;;;4974507;28;20043;-71
2021/12/04 08:26:48;;;;;;;36.80;13.75;;;4.70;99.90;;;;;;4962041;28;20063;-71
2021/12/04 08:29:23;;;;;;;31.27;13.15;;;4.70;99.90;;;;;;5011461;28;20322;-73
2021/12/04 08:31:50;;;;;;;24.05;10.70;;;4.60;99.90;;;;;;4959103;28;20035;-70
2021/12/04 08:34:16;;;;;;;27.42;11.93;;;5.30;99.90;;;;;;4978055;28;20039;-71
2021/12/04 08:36:42;;;;;;;23.77;12.05;;;4.90;99.90;;;;;;4954215;28;20453;-71
2021/12/04 08:39:09;;;;;;;26.40;11.13;;;4.80;99.90;;;;;;4989917;28;20038;-71
2021/12/04 08:41:35;;;;;;;27.80;11.88;;;5.20;99.90;;;;;;4983583;28;20444;-71
2021/12/04 08:44:02;;;;;;;27.38;10.38;;;5.70;99.90;;;;;;4982930;28;20117;-71
2021/12/04 08:46:28;;;;;;;27.10;11.73;;;5.90;99.90;;;;;;4986701;28;20046;-71
2021/12/04 08:48:57;;;;;;;20.48;9.73;;;4.80;99.90;;;;;;4969169;28;20042;-71
2021/12/04 08:51:23;;;;;;;26.20;12.02;;;5.80;99.90;;;;;;4971379;28;20514;-73
2021/12/04 08:53:50;;;;;;;25.63;10.68;;;5.00;99.90;;;;;;4972242;28;20130;-71
2021/12/04 08:56:16;;;;;;;24.67;10.75;;;5.70;99.90;;;;;;4975619;28;20042;-71
2021/12/04 08:58:42;;;;;;;20.70;9.85;;;4.70;99.90;;;;;;4972337;28;20046;-71
2021/12/04 09:01:13;;;;;;;21.27;10.35;;;5.70;99.90;;;;;;4970590;28;20033;-71
2021/12/04 09:03:45;;;;;;;21.02;10.60;;;5.90;99.90;;;;;;4971361;28;20387;-72
2021/12/04 09:06:11;;;;;;;28.27;11.68;;;4.80;99.90;;;;;;4970409;28;20394;-71
2021/12/04 09:08:37;;;;;;;21.38;9.85;;;4.80;99.90;;;;;;4969825;28;20473;-72
2021/12/04 09:11:10;;;;;;;21.17;9.38;;;5.30;99.90;;;;;;4959720;28;20044;-72
2021/12/04 09:13:36;;;;;;;21.52;9.52;;;5.90;99.90;;;;;;4987094;28;20083;-72
2021/12/04 09:16:05;;;;;;;23.15;9.32;;;5.30;99.90;;;;;;4989175;28;20354;-72
2021/12/04 09:18:32;;;;;;;17.90;8.55;;;5.50;99.90;;;;;;4968094;28;20121;-72
2021/12/04 09:20:58;;;;;;;24.35;11.18;;;6.00;99.90;;;;;;4972128;28;20057;-72
2021/12/04 09:23:30;;;;;;;15.98;8.88;;;5.80;99.90;;;;;;4986813;28;20042;-72
2021/12/04 09:25:59;;;;;;;24.13;10.38;;;6.00;99.90;;;;;;4954517;28;20511;-72
2021/12/04 09:31:53;;;;;;;20.50;9.18;;;5.80;99.90;;;;;;4941861;28;20550;-72
2021/12/04 09:34:34;;;;;;;16.63;9.32;;;5.80;99.90;;;;;;4951944;28;20047;-72
2021/12/04 09:40:21;;;;;;;16.45;8.30;;;5.50;99.90;;;;;;4945940;28;21126;-72
2021/12/04 09:59:31;;;;;;;13.00;8.35;;;5.80;99.90;;;;;;4992929;28;20121;-72
2021/12/04 10:19:00;;;;;;;17.70;9.60;;;5.50;99.90;;;;;;5073157;28;20047;-73
2021/12/04 10:24:44;;;;;;;15.95;9.68;;;5.70;99.90;;;;;;5002328;28;20129;-73
2021/12/04 10:33:13;;;;;;;15.18;9.23;;;5.00;99.90;;;;;;4967981;28;20398;-73
2021/12/04 10:35:40;;;;;;;11.70;7.47;;;5.10;99.90;;;;;;4954057;28;20501;-72
2021/12/04 10:38:08;;;;;;;18.73;9.75;;;5.00;99.90;;;;;;4955223;28;20058;-72
2021/12/04 10:40:47;;;;;;;11.75;6.72;;;5.40;99.90;;;;;;4997951;28;20046;-73
2021/12/04 10:43:24;;;;;;;17.30;10.43;;;5.90;99.90;;;;;;4996645;28;20062;-73
2021/12/04 10:45:54;;;;;;;15.85;9.82;;;5.50;99.90;;;;;;4978349;28;20045;-72
2021/12/04 10:48:25;;;;;;;13.93;7.45;;;6.00;99.90;;;;;;4996772;28;20036;-72
2021/12/04 10:51:23;;;;;;;14.05;8.15;;;5.00;99.90;;;;;;4985559;28;20042;-72
2021/12/04 10:53:49;;;;;;;14.50;8.77;;;5.20;99.90;;;;;;4997347;28;20049;-72
2021/12/04 11:02:16;;;;;;;17.00;9.40;;;5.80;99.90;;;;;;5015055;28;20093;-73
2021/12/04 11:07:34;;;;;;;13.23;7.25;;;5.80;99.90;;;;;;4981951;28;20043;-72
2021/12/04 11:38:02;;;;;;;14.80;8.48;;;5.60;99.90;;;;;;4980836;28;20053;-72
2021/12/04 11:40:48;;;;;;;11.95;7.50;;;4.60;99.90;;;;;;4995094;28;20050;-71
2021/12/04 11:43:18;;;;;;;16.50;9.52;;;5.60;99.90;;;;;;4964785;28;20039;-72
2021/12/04 11:46:13;;;;;;;17.02;8.63;;;5.60;99.90;;;;;;4993706;28;20149;-72
2021/12/04 11:48:41;;;;;;;17.67;8.93;;;5.50;99.90;;;;;;4966882;28;20529;-72
2021/12/04 11:51:20;;;;;;;14.02;7.63;;;5.20;99.90;;;;;;4955425;28;20108;-72
2021/12/04 11:53:48;;;;;;;15.43;8.80;;;5.90;99.90;;;;;;4964083;28;20154;-72
2021/12/04 11:56:19;;;;;;;15.02;8.57;;;5.40;99.90;;;;;;4971242;28;20058;-71
2021/12/04 11:58:48;;;;;;;15.68;8.93;;;5.80;99.90;;;;;;4948955;28;20092;-71
2021/12/04 12:01:30;;;;;;;15.43;9.20;;;5.40;99.90;;;;;;4953655;28;20038;-72
2021/12/04 12:04:00;;;;;;;11.95;7.03;;;5.60;99.90;;;;;;4961658;28;20043;-71
2021/12/04 12:06:45;;;;;;;13.77;7.43;;;5.90;99.90;;;;;;4977090;28;20481;-72
2021/12/04 12:09:25;;;;;;;21.10;10.70;;;6.00;99.90;;;;;;4963028;28;20043;-72
2021/12/04 12:12:01;;;;;;;15.52;8.00;;;5.30;99.90;;;;;;4983885;28;20042;-72
2021/12/04 12:14:36;;;;;;;19.13;10.55;;;5.10;99.90;;;;;;4956016;28;20566;-72
2021/12/04 12:17:03;;;;;;;17.00;9.85;;;5.70;99.90;;;;;;4986232;28;20078;-72
2021/12/04 12:19:37;;;;;;;25.10;12.43;;;5.80;99.90;;;;;;4961965;28;20141;-72
2021/12/04 12:22:20;;;;;;;17.27;10.00;;;5.90;99.90;;;;;;4952553;28;20046;-71
2021/12/04 12:38:36;;;;;;;18.90;9.48;;;5.20;99.90;;;;;;5003196;28;20479;-73
2021/12/04 12:41:10;;;;;;;22.05;10.35;;;5.50;99.90;;;;;;4957152;28;20050;-72
2021/12/04 12:43:44;;;;;;;19.47;10.23;;;5.80;99.90;;;;;;4961519;28;20471;-72
2021/12/04 12:46:10;;;;;;;19.48;10.32;;;6.00;99.90;;;;;;4963039;28;20053;-72
2021/12/04 12:48:50;;;;;;;19.40;10.35;;;5.70;99.90;;;;;;4961935;28;20043;-72
2021/12/04 12:51:27;;;;;;;23.63;11.80;;;5.80;99.90;;;;;;4952331;28;20129;-72
2021/12/04 12:53:53;;;;;;;24.00;12.80;;;5.40;99.90;;;;;;4961626;28;20498;-72
2021/12/04 12:56:22;;;;;;;23.67;13.25;;;5.90;99.90;;;;;;4961317;28;20051;-72
2021/12/04 12:58:55;;;;;;;24.83;12.50;;;5.20;99.90;;;;;;4962076;28;20043;-72
2021/12/04 13:13:30;;;;;;;22.13;12.38;;;5.40;99.90;;;;;;4961213;28;20056;-72
2021/12/04 13:16:04;;;;;;;25.45;12.95;;;5.40;99.90;;;;;;4968968;28;20054;-73
2021/12/04 13:18:32;;;;;;;25.00;13.23;;;5.20;99.90;;;;;;4950799;28;20054;-72
2021/12/04 13:21:04;;;;;;;24.85;13.02;;;5.60;99.90;;;;;;4961500;28;20054;-72
2021/12/04 13:23:39;;;;;;;28.48;13.55;;;5.60;99.90;;;;;;4958248;28;20043;-72
2021/12/04 13:26:09;;;;;;;24.58;13.68;;;5.80;99.90;;;;;;4936426;28;20043;-72
2021/12/04 13:28:38;;;;;;;27.25;15.07;;;5.80;99.90;;;;;;4963072;28;20084;-72
2021/12/04 13:31:05;;;;;;;23.83;12.25;;;5.80;99.90;;;;;;4963772;28;20050;-73
2021/12/04 13:33:36;;;;;;;30.23;15.10;;;5.80;99.90;;;;;;4958330;28;20100;-72
2021/12/04 13:36:10;;;;;;;28.60;15.50;;;5.80;99.90;;;;;;4964750;28;20401;-72
2021/12/04 13:38:36;;;;;;;24.15;11.90;;;5.70;99.90;;;;;;4963887;28;20070;-72
2021/12/04 13:41:02;;;;;;;27.55;14.98;;;5.80;99.90;;;;;;4997542;28;20694;-72
2021/12/04 13:43:28;;;;;;;26.73;13.35;;;5.80;99.90;;;;;;4938424;28;20046;-72
2021/12/04 13:46:04;;;;;;;28.52;15.07;;;5.90;99.90;;;;;;4964023;28;20054;-72
2021/12/04 13:48:33;;;;;;;35.67;18.15;;;5.90;99.90;;;;;;4964021;28;20409;-73
2021/12/04 13:50:59;;;;;;;32.47;16.88;;;5.90;99.90;;;;;;4964711;28;20069;-72
2021/12/04 13:53:46;;;;;;;33.75;16.27;;;5.10;99.90;;;;;;4982236;28;20057;-72
2021/12/04 13:56:15;;;;;;;41.75;19.73;;;5.10;99.90;;;;;;4964899;28;20042;-72
2021/12/04 13:58:52;;;;;;;38.17;18.63;;;5.30;99.90;;;;;;4961986;28;20049;-72
2021/12/04 14:01:19;;;;;;;41.13;19.45;;;5.90;99.90;;;;;;4981726;28;20059;-72
2021/12/04 14:03:47;;;;;;;34.50;18.13;;;5.80;99.90;;;;;;4959836;28;20049;-72
2021/12/04 14:06:16;;;;;;;38.78;18.63;;;5.60;99.90;;;;;;4962060;28;20097;-72
2021/12/04 14:08:42;;;;;;;31.80;15.27;;;5.90;99.90;;;;;;4961804;28;20107;-72
2021/12/04 14:11:08;;;;;;;42.40;18.08;;;5.60;99.90;;;;;;4964603;28;20046;-72
2021/12/04 14:13:37;;;;;;;29.77;15.23;;;5.10;99.90;;;;;;4964636;28;20136;-72
2021/12/04 14:16:05;;;;;;;37.45;17.40;;;5.20;99.90;;;;;;4958328;28;20046;-72
2021/12/04 14:18:30;;;;;;;41.50;18.67;;;5.30;99.90;;;;;;4965657;28;20034;-73
2021/12/04 14:21:00;;;;;;;40.00;18.95;;;5.30;99.90;;;;;;4967706;28;20533;-72
2021/12/04 14:23:33;;;;;;;41.60;19.45;;;6.00;99.90;;;;;;4982330;28;20039;-74
2021/12/04 14:26:03;;;;;;;47.33;19.50;;;5.40;99.90;;;;;;4993896;28;20042;-71
2021/12/04 14:28:34;;;;;;;42.65;18.50;;;5.60;99.90;;;;;;4963665;28;20047;-71
2021/12/04 14:31:00;;;;;;;41.85;18.13;;;5.30;99.90;;;;;;4962781;28;20057;-71
2021/12/04 14:33:26;;;;;;;36.50;17.42;;;6.00;99.90;;;;;;4965052;28;20046;-71
2021/12/04 14:35:54;;;;;;;44.22;19.83;;;5.00;99.90;;;;;;4962840;28;20151;-72
2021/12/04 14:38:24;;;;;;;41.00;17.70;;;5.40;99.90;;;;;;4997090;28;20176;-71
2021/12/04 14:40:59;;;;;;;42.47;17.00;;;5.90;99.90;;;;;;4962669;28;20046;-71
2021/12/04 14:43:26;;;;;;;;;;;5.40;99.90;;;;;;4968564;28;20039;-71
2021/12/04 14:45:55;;;;;;;41.05;18.17;;;5.90;99.90;;;;;;4961581;28;19922;-71
2021/12/04 14:48:33;;;;;;;40.28;16.83;;;5.40;99.90;;;;;;4962279;28;20062;-71
2021/12/04 14:51:05;;;;;;;38.15;16.65;;;5.20;99.90;;;;;;4993042;28;20157;-72
2021/12/04 14:53:34;;;;;;;27.45;11.63;;;5.60;99.90;;;;;;4959012;28;20047;-72
2021/12/04 14:56:05;;;;;;;40.95;17.35;;;5.30;99.90;;;;;;4979911;28;20440;-71
2021/12/04 14:58:31;;;;;;;38.13;16.85;;;5.00;99.90;;;;;;4943640;28;20158;-72
2021/12/04 15:01:06;;;;;;;32.75;15.82;;;5.20;99.90;;;;;;4951632;28;20118;-72
2021/12/04 15:03:34;;;;;;;36.33;16.15;;;5.90;99.90;;;;;;4965328;28;20050;-72
2021/12/04 15:06:03;;;;;;;36.97;15.75;;;6.00;99.90;;;;;;4963931;28;20378;-72
2021/12/04 15:08:49;;;;;;;39.20;17.52;;;5.10;99.90;;;;;;4965052;28;20050;-72
2021/12/04 15:11:19;;;;;;;36.33;17.75;;;5.80;99.90;;;;;;5024849;28;20133;-72
2021/12/04 15:14:03;;;;;;;40.28;18.92;;;5.30;99.90;;;;;;5002527;28;20088;-72
2021/12/04 15:19:11;;;;;;;37.30;17.88;;;5.90;99.90;;;;;;4986180;28;20129;-71
2021/12/04 15:21:43;;;;;;;35.80;16.70;;;5.60;99.90;;;;;;4936611;28;20406;-71
2021/12/04 15:24:13;;;;;;;31.73;14.52;;;5.70;99.90;;;;;;4958211;28;20822;-71
2021/12/04 15:26:41;;;;;;;34.85;17.55;;;5.10;99.90;;;;;;4996950;28;20059;-72
2021/12/04 15:29:34;;;;;;;37.05;16.73;;;5.20;99.90;;;;;;4945124;28;20062;-72
2021/12/04 15:32:05;;;;;;;42.60;19.45;;;5.90;99.90;;;;;;4944666;28;20229;-71
2021/12/04 15:34:35;;;;;;;44.83;19.23;;;5.00;99.90;;;;;;4977006;28;20514;-72
2021/12/04 15:37:05;;;;;;;44.25;19.23;;;5.90;99.90;;;;;;5012078;28;20083;-71
2021/12/04 15:39:38;;;;;;;42.30;19.10;;;5.60;99.90;;;;;;4969789;28;20058;-71
2021/12/04 15:45:24;;;;;;;42.00;17.10;;;5.00;99.90;;;;;;4944348;28;20870;-71
2021/12/04 15:48:07;;;;;;;40.97;15.75;;;5.10;99.90;;;;;;4944260;29;20047;-72
2021/12/04 15:51:14;;;;;;;38.80;17.15;;;5.90;99.90;;;;;;4973947;28;20066;-71
2021/12/04 15:53:36;;;;;;;36.30;16.05;;;5.00;99.90;;;;;;4947739;28;20051;-71
2021/12/04 15:56:03;;;;;;;40.42;17.42;;;5.80;99.90;;;;;;4948444;28;20062;-71
2021/12/04 15:58:33;;;;;;;42.80;17.45;;;6.10;99.90;;;;;;4945603;28;20051;-71